createdAt,value
2018-05-10T00:02:06.603Z,6.83
2018-05-10T00:05:10.001Z,5.03
2018-05-10T00:08:13.890Z,4.83
2018-05-10T00:11:19.926Z,5.17
2018-05-10T00:14:26.325Z,4.57
2018-05-10T00:17:30.150Z,5.10
2018-05-10T00:20:33.338Z,4.60
2018-05-10T00:23:36.577Z,4.50
2018-05-10T00:26:43.195Z,5.00
2018-05-10T00:29:46.485Z,4.97
2018-05-10T00:32:49.853Z,5.17
2018-05-10T00:35:55.733Z,4.87
2018-05-10T00:38:59.791Z,5.50
2018-05-10T00:42:03.026Z,5.33
2018-05-10T00:45:06.495Z,5.53
2018-05-10T00:48:09.709Z,4.57
2018-05-10T00:51:12.886Z,4.63
2018-05-10T00:54:28.907Z,5.33
2018-05-10T00:57:32.976Z,4.73
2018-05-10T01:00:36.332Z,4.93
2018-05-10T01:03:39.560Z,5.13
2018-05-10T01:06:43.472Z,5.30
2018-05-10T01:09:49.425Z,5.03
2018-05-10T01:16:02.861Z,4.60
2018-05-10T01:19:06.052Z,5.20
2018-05-10T01:22:09.449Z,5.10
2018-05-10T01:25:17.236Z,4.97
2018-05-10T01:28:20.546Z,5.53
2018-05-10T01:31:25.394Z,5.17
2018-05-10T01:34:29.904Z,5.43
2018-05-10T01:37:34.778Z,5.43
2018-05-10T01:40:37.995Z,7.03
2018-05-10T01:43:42.550Z,7.50
2018-05-10T01:46:46.675Z,7.10
2018-05-10T01:49:54.127Z,6.97
2018-05-10T01:52:58.469Z,6.97
2018-05-10T01:56:01.664Z,7.63
2018-05-10T01:59:04.836Z,6.00
2018-05-10T02:02:08.001Z,6.87
2018-05-10T02:05:11.376Z,6.93
2018-05-10T02:08:16.500Z,5.57
2018-05-10T02:11:21.661Z,5.77
2018-05-10T02:14:25.629Z,6.07
2018-05-10T02:17:28.922Z,6.37
2018-05-10T02:20:33.210Z,6.10
2018-05-10T02:23:36.422Z,6.10
2018-05-10T02:26:39.630Z,5.73
2018-05-10T02:29:44.303Z,6.00
2018-05-10T02:32:47.471Z,6.00
2018-05-10T02:35:50.669Z,5.93
2018-05-10T02:38:53.875Z,5.63
2018-05-10T02:41:57.827Z,6.50
2018-05-10T02:45:01.090Z,5.23
2018-05-10T02:48:04.983Z,5.90
2018-05-10T02:51:08.153Z,6.17
2018-05-10T02:54:11.692Z,5.60
2018-05-10T02:57:15.779Z,5.77
2018-05-10T03:00:19.035Z,5.73
2018-05-10T03:03:22.227Z,6.10
2018-05-10T03:06:27.101Z,6.33
2018-05-10T03:09:30.366Z,5.83
2018-05-10T03:12:34.343Z,5.90
2018-05-10T03:15:37.631Z,5.97
2018-05-10T03:18:50.564Z,6.03
2018-05-10T03:21:53.893Z,5.80
2018-05-10T03:24:57.178Z,6.07
2018-05-10T03:28:01.308Z,5.80
2018-05-10T03:31:04.580Z,5.80
2018-05-10T03:34:07.732Z,5.83
2018-05-10T03:37:10.988Z,6.23
2018-05-10T03:40:14.315Z,5.87
2018-05-10T03:43:17.882Z,5.90
2018-05-10T03:46:21.106Z,5.57
2018-05-10T03:49:24.419Z,5.90
2018-05-10T03:52:29.137Z,6.97
2018-05-10T03:55:32.314Z,6.87
2018-05-10T03:58:35.498Z,5.73
2018-05-10T04:01:38.696Z,6.67
2018-05-10T04:04:54.536Z,4.97
2018-05-10T04:08:09.736Z,6.10
2018-05-10T04:11:28.918Z,5.77
2018-05-10T04:14:32.134Z,6.90
2018-05-10T04:17:35.327Z,6.50
2018-05-10T04:20:38.500Z,6.10
2018-05-10T04:23:43.341Z,6.53
2018-05-10T04:26:47.404Z,6.20
2018-05-10T04:29:51.408Z,6.30
2018-05-10T04:32:56.534Z,6.10
2018-05-10T04:35:59.723Z,6.40
2018-05-10T04:39:03.567Z,5.87
2018-05-10T04:42:07.576Z,6.13
2018-05-10T04:45:10.823Z,6.27
2018-05-10T04:48:14.202Z,5.67
2018-05-10T04:51:18.161Z,6.20
2018-05-10T04:54:21.420Z,5.67
2018-05-10T04:57:25.986Z,6.17
2018-05-10T05:00:29.267Z,5.90
2018-05-10T05:03:33.752Z,5.93
2018-05-10T05:06:37.731Z,6.37
2018-05-10T05:09:41.095Z,5.70
2018-05-10T05:12:45.647Z,6.20
2018-05-10T05:15:49.695Z,6.20
2018-05-10T05:18:54.794Z,6.30
2018-05-10T05:21:58.065Z,6.17
2018-05-10T05:25:02.323Z,6.23
2018-05-10T05:28:05.642Z,6.30
2018-05-10T05:31:09.109Z,6.57
2018-05-10T05:34:17.447Z,6.93
2018-05-10T05:37:21.465Z,7.03
2018-05-10T05:40:25.503Z,7.20
2018-05-10T05:43:28.794Z,7.60
2018-05-10T05:46:32.020Z,6.80
2018-05-10T05:49:35.964Z,6.30
2018-05-10T05:52:39.248Z,7.27
2018-05-10T05:55:43.200Z,6.03
2018-05-10T05:58:46.444Z,7.17
2018-05-10T06:01:49.982Z,7.57
2018-05-10T06:04:53.984Z,7.10
2018-05-10T06:07:57.244Z,7.17
2018-05-10T06:11:02.883Z,6.67
2018-05-10T06:14:06.134Z,6.33
2018-05-10T06:17:09.294Z,6.53
2018-05-10T06:20:13.810Z,6.73
2018-05-10T06:23:17.028Z,6.47
2018-05-10T06:26:20.224Z,6.87
2018-05-10T06:29:24.016Z,6.37
2018-05-10T06:32:28.074Z,6.90
2018-05-10T06:35:31.405Z,6.10
2018-05-10T06:38:35.154Z,6.80
2018-05-10T06:41:40.267Z,6.60
2018-05-10T06:44:44.813Z,6.60
2018-05-10T06:47:48.074Z,6.30
2018-05-10T06:50:52.455Z,6.43
2018-05-10T06:53:55.679Z,6.07
2018-05-10T06:56:59.793Z,5.97
2018-05-10T07:00:06.591Z,5.83
2018-05-10T07:03:09.803Z,6.17
2018-05-10T07:06:13.303Z,6.10
2018-05-10T07:09:16.628Z,5.70
2018-05-10T07:12:19.816Z,5.90
2018-05-10T07:15:24.315Z,6.03
2018-05-10T07:18:27.498Z,5.65
2018-05-10T07:21:33.127Z,6.17
2018-05-10T07:24:37.822Z,5.87
2018-05-10T07:27:41.121Z,5.40
2018-05-10T07:30:45.729Z,5.80
2018-05-10T07:33:48.915Z,5.30
2018-05-10T07:36:53.028Z,4.50
2018-05-10T07:39:59.004Z,4.40
2018-05-10T07:43:02.219Z,3.85
2018-05-10T07:46:05.504Z,4.82
2018-05-10T07:49:08.671Z,4.12
2018-05-10T07:52:12.306Z,3.80
2018-05-10T07:55:15.708Z,4.15
2018-05-10T07:58:19.489Z,3.62
2018-05-10T08:01:23.693Z,3.60
2018-05-10T08:04:27.127Z,3.70
2018-05-10T08:07:31.658Z,3.08
2018-05-10T08:10:34.916Z,3.28
2018-05-10T08:13:38.188Z,3.85
2018-05-10T08:16:45.643Z,3.50
2018-05-10T08:19:51.765Z,3.35
2018-05-10T08:22:54.982Z,3.65
2018-05-10T08:25:58.492Z,3.92
2018-05-10T08:29:02.025Z,3.45
2018-05-10T08:32:06.342Z,3.72
2018-05-10T08:35:10.342Z,3.87
2018-05-10T08:38:17.934Z,4.00
2018-05-10T08:41:21.460Z,3.78
2018-05-10T08:44:26.269Z,3.58
2018-05-10T08:47:30.084Z,3.67
2018-05-10T08:50:33.376Z,3.87
2018-05-10T08:53:36.675Z,3.62
2018-05-10T08:56:40.135Z,3.92
2018-05-10T08:59:44.101Z,4.05
2018-05-10T09:02:50.606Z,4.25
2018-05-10T09:05:55.908Z,3.87
2018-05-10T09:09:02.051Z,4.65
2018-05-10T09:12:05.229Z,4.18
2018-05-10T09:15:08.531Z,4.20
2018-05-10T09:18:12.365Z,4.28
2018-05-10T09:21:16.168Z,4.20
2018-05-10T09:24:19.381Z,4.40
2018-05-10T09:27:22.588Z,4.68
2018-05-10T09:30:25.874Z,4.30
2018-05-10T09:33:29.113Z,4.55
2018-05-10T09:36:32.391Z,4.55
2018-05-10T09:39:35.684Z,4.18
2018-05-10T09:42:39.871Z,5.18
2018-05-10T09:45:44.393Z,4.00
2018-05-10T09:48:48.536Z,4.15
2018-05-10T09:51:51.796Z,4.00
2018-05-10T09:54:55.298Z,4.47
2018-05-10T09:57:59.368Z,4.55
2018-05-10T10:01:02.701Z,4.37
2018-05-10T10:04:05.856Z,3.53
2018-05-10T10:07:09.093Z,3.95
2018-05-10T10:10:12.392Z,4.12
2018-05-10T10:13:18.038Z,3.90
2018-05-10T10:16:21.855Z,4.18
2018-05-10T10:19:25.122Z,3.72
2018-05-10T10:22:28.312Z,4.10
2018-05-10T10:25:33.704Z,4.10
2018-05-10T10:28:36.997Z,4.55
2018-05-10T10:31:40.255Z,4.18
2018-05-10T10:34:50.702Z,4.12
2018-05-10T10:37:54.763Z,4.50
2018-05-10T10:40:59.247Z,4.20
2018-05-10T10:44:02.575Z,4.67
2018-05-10T10:47:05.741Z,4.20
2018-05-10T10:50:08.914Z,4.37
2018-05-10T10:53:12.175Z,4.80
2018-05-10T10:56:16.130Z,5.17
2018-05-10T10:59:19.437Z,4.57
2018-05-10T11:02:23.636Z,4.57
2018-05-10T11:05:26.867Z,4.43
2018-05-10T11:08:30.640Z,4.50
2018-05-10T11:11:34.722Z,4.60
2018-05-10T11:14:37.924Z,4.70
2018-05-10T11:17:41.493Z,4.73
2018-05-10T11:20:46.549Z,4.43
2018-05-10T11:27:04.558Z,4.87
2018-05-10T11:30:08.883Z,4.50
2018-05-10T11:33:16.547Z,4.67
2018-05-10T11:36:20.756Z,4.80
2018-05-10T11:39:24.188Z,5.73
2018-05-10T11:42:28.299Z,5.60
2018-05-10T11:45:32.964Z,5.27
2018-05-10T11:48:36.254Z,5.03
2018-05-10T11:51:40.313Z,5.30
2018-05-10T11:54:50.255Z,5.00
2018-05-10T11:57:56.219Z,4.60
2018-05-10T12:01:02.792Z,4.53
2018-05-10T12:04:06.232Z,4.43
2018-05-10T12:07:09.378Z,4.63
2018-05-10T12:10:13.592Z,4.80
2018-05-10T12:13:16.938Z,4.67
2018-05-10T12:16:21.093Z,5.00
2018-05-10T12:19:29.227Z,4.60
2018-05-10T12:22:33.032Z,5.30
2018-05-10T12:25:36.747Z,5.17
2018-05-10T12:28:39.977Z,5.50
2018-05-10T12:31:43.826Z,5.63
2018-05-10T12:34:47.793Z,5.13
2018-05-10T12:37:51.121Z,5.83
2018-05-10T12:40:54.433Z,5.40
2018-05-10T12:44:01.187Z,5.67
2018-05-10T12:47:05.150Z,5.60
2018-05-10T12:50:08.398Z,5.47
2018-05-10T12:53:18.277Z,6.00
2018-05-10T12:56:21.548Z,6.10
2018-05-10T12:59:25.550Z,6.07
2018-05-10T13:02:32.013Z,6.43
2018-05-10T13:05:35.225Z,6.30
2018-05-10T13:08:38.396Z,6.73
2018-05-10T13:11:42.498Z,7.20
2018-05-10T13:14:48.349Z,6.43
2018-05-10T13:17:51.591Z,6.57
2018-05-10T13:20:56.463Z,8.77
2018-05-10T13:23:59.900Z,11.73
2018-05-10T13:27:03.258Z,10.90
2018-05-10T13:30:07.382Z,9.70
2018-05-10T13:33:10.978Z,7.90
2018-05-10T13:36:17.376Z,9.53
2018-05-10T13:39:21.573Z,11.23
2018-05-10T13:42:25.926Z,14.10
2018-05-10T13:45:29.392Z,15.70
2018-05-10T13:48:32.618Z,14.63
2018-05-10T13:51:36.666Z,14.00
2018-05-10T13:54:40.001Z,13.47
2018-05-10T13:57:47.379Z,9.63
2018-05-10T14:00:50.762Z,9.13
2018-05-10T14:03:56.313Z,7.63
2018-05-10T14:07:01.121Z,8.30
2018-05-10T14:10:05.171Z,8.53
2018-05-10T14:13:09.276Z,8.53
2018-05-10T14:16:13.526Z,9.33
2018-05-10T14:19:16.880Z,11.40
2018-05-10T14:22:21.945Z,12.27
2018-05-10T14:25:26.129Z,13.77
2018-05-10T14:28:29.343Z,13.10
2018-05-10T14:31:33.581Z,12.97
2018-05-10T14:34:37.668Z,15.20
2018-05-10T14:37:41.288Z,13.50
2018-05-10T14:40:44.953Z,14.70
2018-05-10T14:43:51.716Z,13.43
2018-05-10T14:46:56.282Z,11.80
2018-05-10T14:49:59.713Z,10.80
2018-05-10T14:53:02.951Z,12.80
2018-05-10T14:56:06.281Z,12.03
2018-05-10T14:59:09.538Z,13.67
2018-05-10T15:02:15.638Z,11.27
2018-05-10T15:05:18.824Z,11.33
2018-05-10T15:08:25.559Z,11.73
2018-05-10T15:11:29.023Z,12.23
2018-05-10T15:14:32.270Z,14.30
2018-05-10T15:17:36.626Z,10.87
2018-05-10T15:20:39.912Z,11.67
2018-05-10T15:23:48.292Z,14.57
2018-05-10T15:26:56.778Z,13.97
2018-05-10T15:30:00.900Z,15.37
2018-05-10T15:33:05.159Z,12.00
2018-05-10T15:36:09.172Z,11.73
2018-05-10T15:39:13.032Z,11.83
2018-05-10T15:42:19.631Z,11.63
2018-05-10T15:45:23.621Z,11.47
2018-05-10T15:48:27.975Z,12.10
2018-05-10T15:51:31.301Z,11.47
2018-05-10T15:54:34.545Z,14.67
2018-05-10T15:57:37.736Z,13.43
2018-05-10T16:00:41.100Z,13.20
2018-05-10T16:03:45.461Z,13.87
2018-05-10T16:06:50.399Z,13.77
2018-05-10T16:09:53.602Z,15.33
2018-05-10T16:12:56.793Z,14.87
2018-05-10T16:16:02.600Z,15.10
2018-05-10T16:19:05.889Z,14.70
2018-05-10T16:22:09.155Z,13.77
2018-05-10T16:25:14.314Z,16.37
2018-05-10T16:28:20.354Z,17.00
2018-05-10T16:31:25.122Z,14.50
2018-05-10T16:34:33.610Z,14.70
2018-05-10T16:37:38.013Z,15.17
2018-05-10T16:40:42.133Z,15.60
2018-05-10T16:43:46.913Z,18.80
2018-05-10T16:46:52.095Z,16.87
2018-05-10T16:49:57.338Z,16.47
2018-05-10T16:53:00.544Z,16.17
2018-05-10T16:56:03.771Z,16.57
2018-05-10T16:59:07.853Z,17.07
2018-05-10T17:02:12.972Z,16.70
2018-05-10T17:05:17.424Z,18.37
2018-05-10T17:08:21.645Z,19.27
2018-05-10T17:11:24.847Z,19.43
2018-05-10T17:14:28.751Z,18.90
2018-05-10T17:17:32.836Z,20.33
2018-05-10T17:20:37.872Z,20.67
2018-05-10T17:23:41.385Z,21.53
2018-05-10T17:26:44.740Z,21.50
2018-05-10T17:29:47.936Z,22.50
2018-05-10T17:32:51.923Z,21.97
2018-05-10T17:35:58.410Z,22.43
2018-05-10T17:39:02.568Z,22.57
2018-05-10T17:42:06.984Z,19.47
2018-05-10T17:45:10.301Z,19.67
2018-05-10T17:48:13.643Z,16.57
2018-05-10T17:51:21.453Z,16.47
2018-05-10T17:54:28.329Z,17.00
2018-05-10T17:57:32.686Z,15.93
2018-05-10T18:00:37.974Z,16.57
2018-05-10T18:03:42.681Z,16.07
2018-05-10T18:06:46.894Z,16.63
2018-05-10T18:09:50.152Z,14.43
2018-05-10T18:12:54.856Z,14.00
2018-05-10T18:15:58.691Z,14.80
2018-05-10T18:19:01.954Z,13.87
2018-05-10T18:22:05.947Z,12.97
2018-05-10T18:25:09.283Z,12.60
2018-05-10T18:28:13.697Z,12.03
2018-05-10T18:31:21.661Z,11.10
2018-05-10T18:34:24.904Z,9.70
2018-05-10T18:37:28.988Z,9.33
2018-05-10T18:40:33.395Z,10.53
2018-05-10T18:43:36.585Z,9.30
2018-05-10T18:46:39.965Z,8.93
2018-05-10T18:49:47.506Z,9.43
2018-05-10T18:52:51.844Z,10.03
2018-05-10T18:55:56.200Z,10.40
2018-05-10T18:59:00.262Z,8.97
2018-05-10T19:02:03.478Z,8.20
2018-05-10T19:05:07.122Z,7.30
2018-05-10T19:08:10.266Z,6.97
2018-05-10T19:11:13.924Z,6.00
2018-05-10T19:14:17.124Z,5.67
2018-05-10T19:17:20.363Z,5.23
2018-05-10T19:20:24.487Z,4.70
2018-05-10T19:23:28.918Z,4.23
2018-05-10T19:26:32.897Z,4.60
2018-05-10T19:29:36.079Z,4.47
2018-05-10T19:32:40.090Z,5.20
2018-05-10T19:35:43.635Z,4.30
2018-05-10T19:38:47.497Z,5.30
2018-05-10T19:41:50.761Z,4.77
2018-05-10T19:44:54.893Z,5.47
2018-05-10T19:47:58.134Z,5.20
2018-05-10T19:51:01.396Z,6.80
2018-05-10T19:54:04.588Z,5.20
2018-05-10T19:57:07.742Z,6.43
2018-05-10T20:00:10.987Z,6.60
2018-05-10T20:03:18.420Z,6.87
2018-05-10T20:06:21.668Z,6.97
2018-05-10T20:09:26.597Z,6.37
2018-05-10T20:12:29.965Z,7.07
2018-05-10T20:15:33.101Z,6.87
2018-05-10T20:18:37.067Z,6.83
2018-05-10T20:21:40.249Z,7.13
2018-05-10T20:24:43.793Z,7.13
2018-05-10T20:27:48.270Z,6.30
2018-05-10T20:30:51.551Z,6.43
2018-05-10T20:33:57.042Z,6.57
2018-05-10T20:37:00.294Z,7.20
2018-05-10T20:40:03.937Z,6.63
2018-05-10T20:43:07.287Z,6.83
2018-05-10T20:46:10.424Z,6.97
2018-05-10T20:49:14.298Z,7.53
2018-05-10T20:52:20.969Z,7.43
2018-05-10T20:55:25.159Z,7.33
2018-05-10T20:58:28.409Z,7.80
2018-05-10T21:01:33.090Z,7.47
2018-05-10T21:04:37.355Z,8.17
2018-05-10T21:07:41.275Z,8.40
2018-05-10T21:10:45.103Z,8.93
2018-05-10T21:13:49.545Z,9.30
2018-05-10T21:16:52.994Z,9.57
2018-05-10T21:19:56.976Z,9.63
2018-05-10T21:23:01.091Z,9.57
2018-05-10T21:26:05.085Z,9.70
2018-05-10T21:29:08.967Z,9.70
2018-05-10T21:32:13.065Z,10.00
2018-05-10T21:35:16.492Z,10.37
2018-05-10T21:38:19.777Z,11.10
2018-05-10T21:41:22.960Z,10.03
2018-05-10T21:44:26.804Z,10.23
2018-05-10T21:47:30.140Z,11.10
2018-05-10T21:50:33.384Z,10.60
2018-05-10T21:53:36.719Z,11.50
2018-05-10T21:56:39.967Z,11.53
2018-05-10T21:59:47.804Z,11.73
2018-05-10T22:02:51.017Z,12.43
2018-05-10T22:05:54.273Z,12.70
2018-05-10T22:08:57.632Z,12.90
2018-05-10T22:12:00.946Z,13.50
2018-05-10T22:15:04.902Z,13.17
2018-05-10T22:18:09.322Z,12.87
2018-05-10T22:21:12.941Z,12.30
2018-05-10T22:24:16.191Z,12.30
2018-05-10T22:27:20.776Z,19.20
2018-05-10T22:30:24.146Z,14.67
2018-05-10T22:33:29.737Z,13.73
2018-05-10T22:36:35.968Z,13.80
2018-05-10T22:39:41.461Z,16.27
2018-05-10T22:42:44.671Z,14.17
2018-05-10T22:45:47.886Z,15.07
2018-05-10T22:48:51.135Z,15.20
2018-05-10T22:51:55.083Z,14.00
2018-05-10T22:54:58.301Z,14.80
2018-05-10T22:58:01.514Z,14.20
2018-05-10T23:01:04.771Z,13.57
2018-05-10T23:04:08.000Z,14.43
2018-05-10T23:07:11.223Z,14.03
2018-05-10T23:10:16.664Z,12.83
2018-05-10T23:13:20.693Z,13.73
2018-05-10T23:16:23.895Z,14.43
2018-05-10T23:19:28.357Z,14.63
2018-05-10T23:22:32.368Z,14.73
2018-05-10T23:25:35.576Z,13.17
2018-05-10T23:28:38.787Z,13.63
2018-05-10T23:31:42.058Z,14.47
2018-05-10T23:34:49.208Z,13.17
2018-05-10T23:37:52.385Z,12.83
2018-05-10T23:40:55.622Z,14.20
2018-05-10T23:43:59.000Z,12.80
2018-05-10T23:47:02.218Z,14.17
2018-05-10T23:50:05.511Z,15.17
2018-05-10T23:53:08.737Z,15.33
2018-05-10T23:56:12.044Z,14.57
2018-05-10T23:59:16.398Z,15.90
